Time;durP1;ratioP1;P1;durP2;ratioP2;P2;SDS_P1;SDS_P2;PMS_P1;PMS_P2;Temp;Humidity;BMP_temperature;BMP_pressure;BME280_temperature;BME280_humidity;BME280_pressure;Samples;Min_cycle;Max_cycle;Signal;HPM_P1;HPM_P2
2022/06/27 00:00:22;;;;;;;6.85;4.87;;;27.40;99.90;;;;;;1958825;72;21182;-82
2022/06/27 00:02:53;;;;;;;5.90;4.10;;;27.50;99.90;;;;;;1953066;72;21171;-81
2022/06/27 00:05:25;;;;;;;7.97;4.40;;;27.50;99.90;;;;;;1945259;72;21191;-82
2022/06/27 00:07:56;;;;;;;8.23;4.12;;;27.50;99.90;;;;;;1937852;73;21578;-82
2022/06/27 00:10:27;;;;;;;7.60;3.92;;;27.70;99.90;;;;;;1933972;72;21131;-81
2022/06/27 00:12:58;;;;;;;4.87;3.95;;;27.60;99.90;;;;;;1924800;73;21725;-82
2022/06/27 00:15:29;;;;;;;8.65;4.10;;;27.60;99.90;;;;;;1938073;73;21057;-82
2022/06/27 00:18:01;;;;;;;8.33;4.22;;;27.70;99.90;;;;;;1937764;73;21045;-82
2022/06/27 00:20:32;;;;;;;11.48;4.03;;;27.60;99.90;;;;;;1937641;72;21634;-82
2022/06/27 00:23:03;;;;;;;5.47;3.92;;;27.60;99.90;;;;;;1949235;72;21159;-82
2022/06/27 00:25:34;;;;;;;4.50;3.70;;;27.60;99.90;;;;;;1932182;72;21093;-82
2022/06/27 00:28:06;;;;;;;5.20;3.90;;;27.70;99.90;;;;;;1889769;74;21138;-83
2022/06/27 00:30:36;;;;;;;9.75;4.72;;;27.80;99.90;;;;;;1881451;74;21130;-82
2022/06/27 00:33:07;;;;;;;7.28;4.15;;;27.80;99.90;;;;;;1890955;75;21226;-82
2022/06/27 00:35:39;;;;;;;7.62;3.90;;;27.80;99.90;;;;;;1926250;72;21182;-83
2022/06/27 00:38:10;;;;;;;8.60;4.20;;;28.00;99.90;;;;;;1916077;73;21100;-82
2022/06/27 00:40:41;;;;;;;7.80;4.12;;;28.00;99.90;;;;;;1927247;73;21143;-82
2022/06/27 00:43:12;;;;;;;6.55;3.45;;;28.10;99.90;;;;;;1950448;72;21652;-82
2022/06/27 00:45:43;;;;;;;7.60;3.75;;;28.20;99.90;;;;;;1926932;73;21111;-82
2022/06/27 00:48:14;;;;;;;8.55;3.80;;;28.20;99.90;;;;;;1917671;73;21181;-82
2022/06/27 00:50:46;;;;;;;6.55;3.58;;;28.10;99.90;;;;;;1940686;72;21085;-81
2022/06/27 00:53:17;;;;;;;6.47;3.92;;;28.20;99.90;;;;;;1959994;72;21116;-82
2022/06/27 00:55:48;;;;;;;7.65;3.80;;;28.40;99.90;;;;;;1948933;72;21116;-82
2022/06/27 00:58:19;;;;;;;6.12;3.65;;;28.50;99.90;;;;;;1937322;73;21604;-83
2022/06/27 01:00:50;;;;;;;6.78;3.75;;;28.40;99.90;;;;;;1936379;72;21171;-82
2022/06/27 01:03:21;;;;;;;5.60;3.95;;;28.40;99.90;;;;;;1944576;72;21095;-72
2022/06/27 01:05:52;;;;;;;7.78;3.30;;;28.50;99.90;;;;;;1956248;71;21135;-73
2022/06/27 01:08:28;;;;;;;7.90;3.33;;;28.50;99.90;;;;;;1910022;73;21165;-72
2022/06/27 01:10:57;;;;;;;4.60;3.42;;;28.70;99.90;;;;;;1902847;73;21084;-72
2022/06/27 01:13:29;;;;;;;6.25;3.25;;;28.70;99.90;;;;;;1846503;76;21620;-73
2022/06/27 01:16:01;;;;;;;6.78;3.70;;;28.70;99.90;;;;;;1893305;74;21691;-72
2022/06/27 01:18:32;;;;;;;7.62;4.05;;;29.00;99.90;;;;;;1899809;73;22010;-72
2022/06/27 01:21:04;;;;;;;6.80;3.58;;;29.00;99.90;;;;;;1862670;74;21644;-72
2022/06/27 01:23:36;;;;;;;5.17;3.40;;;29.00;99.90;;;;;;1882466;75;21117;-72
2022/06/27 01:26:07;;;;;;;6.25;3.87;;;29.30;99.90;;;;;;1911361;74;21138;-72
2022/06/27 01:28:38;;;;;;;6.30;3.42;;;29.30;99.90;;;;;;1905696;74;21052;-71
2022/06/27 01:31:10;;;;;;;9.63;3.95;;;29.30;99.90;;;;;;1878063;75;21137;-71
2022/06/27 01:33:41;;;;;;;4.45;3.37;;;29.40;99.90;;;;;;1925538;73;21182;-71
2022/06/27 01:38:45;;;;;;;6.42;3.55;;;29.60;99.90;;;;;;1900970;73;21639;-73
2022/06/27 01:41:15;;;;;;;5.10;3.52;;;29.70;99.90;;;;;;1972578;72;21150;-72
2022/06/27 01:43:48;;;;;;;6.35;3.90;;;29.80;99.90;;;;;;1965952;71;21531;-72
2022/06/27 01:46:19;;;;;;;11.57;4.00;;;29.80;99.90;;;;;;1926809;73;21143;-72
2022/06/27 01:48:50;;;;;;;6.83;3.80;;;29.90;99.90;;;;;;1931962;73;21667;-72
2022/06/27 01:51:21;;;;;;;8.75;3.87;;;30.10;99.90;;;;;;1893609;74;21151;-71
2022/06/27 01:53:52;;;;;;;7.47;3.47;;;30.10;99.90;;;;;;1906257;75;21178;-72
2022/06/27 01:56:23;;;;;;;6.12;3.77;;;30.30;99.90;;;;;;1919010;73;21175;-75
2022/06/27 01:58:57;;;;;;;5.47;2.90;;;30.40;99.90;;;;;;1909710;74;21552;-71
2022/06/27 02:01:27;;;;;;;5.85;3.15;;;30.70;99.90;;;;;;1914726;73;21216;-72
2022/06/27 02:03:59;;;;;;;5.35;2.95;;;30.90;99.90;;;;;;1890010;74;21646;-72
2022/06/27 02:06:31;;;;;;;8.03;3.20;;;30.90;99.90;;;;;;1884372;74;21249;-71
2022/06/27 02:09:04;;;;;;;5.70;3.27;;;30.80;99.90;;;;;;1944559;73;21073;-71
2022/06/27 02:11:36;;;;;;;5.22;3.30;;;31.20;99.60;;;;;;1946736;72;21108;-73
2022/06/27 02:14:07;;;;;;;5.53;3.02;;;30.90;99.10;;;;;;1959425;72;21112;-72
2022/06/27 02:16:40;;;;;;;5.72;3.05;;;31.00;99.30;;;;;;1922195;72;21564;-72
2022/06/27 02:19:13;;;;;;;5.62;2.50;;;31.30;99.30;;;;;;1966257;72;21057;-72
2022/06/27 02:21:45;;;;;;;4.60;2.70;;;31.20;98.70;;;;;;1945080;72;21516;-72
2022/06/27 02:24:17;;;;;;;4.45;2.60;;;31.60;98.80;;;;;;1908049;74;21179;-71
2022/06/27 02:26:50;;;;;;;8.93;2.83;;;31.30;98.40;;;;;;1874181;75;21134;-72
2022/06/27 02:29:21;;;;;;;4.15;2.87;;;31.40;98.30;;;;;;1951571;72;21147;-72
2022/06/27 02:31:53;;;;;;;5.85;2.40;;;31.80;98.50;;;;;;1953735;72;21103;-71
2022/06/27 02:34:24;;;;;;;6.67;3.77;;;31.60;98.20;;;;;;1921899;73;21604;-71
2022/06/27 02:36:57;;;;;;;6.33;3.45;;;31.80;97.70;;;;;;1966304;72;21083;-69
2022/06/27 02:39:31;;;;;;;3.77;2.47;;;31.50;97.30;;;;;;1928022;73;21132;-71
2022/06/27 02:42:04;;;;;;;6.35;2.50;;;31.40;97.70;;;;;;1925486;72;21108;-71
2022/06/27 02:44:35;;;;;;;3.08;2.45;;;31.50;98.00;;;;;;1935426;73;21544;-71
2022/06/27 02:47:07;;;;;;;4.37;2.22;;;31.50;97.70;;;;;;1935065;72;21710;-71
2022/06/27 02:49:42;;;;;;;5.35;2.65;;;31.60;96.50;;;;;;1946547;72;21540;-73
2022/06/27 02:52:15;;;;;;;5.33;3.17;;;31.80;96.90;;;;;;1892148;74;21137;-72
2022/06/27 02:54:48;;;;;;;5.83;2.65;;;31.70;97.60;;;;;;1920989;72;21218;-72
2022/06/27 02:57:22;;;;;;;4.78;2.55;;;31.60;96.90;;;;;;1925281;73;21138;-72
2022/06/27 02:59:55;;;;;;;5.20;2.45;;;32.00;97.80;;;;;;1928242;73;21587;-71
2022/06/27 03:02:29;;;;;;;7.45;2.67;;;32.00;97.00;;;;;;1927969;73;21182;-72
2022/06/27 03:05:00;;;;;;;5.90;2.70;;;31.90;97.30;;;;;;1935082;72;21691;-72
2022/06/27 03:07:34;;;;;;;4.85;2.40;;;32.20;97.30;;;;;;1934344;73;22134;-71
2022/06/27 03:10:06;;;;;;;4.37;2.72;;;32.10;96.90;;;;;;1928968;73;21132;-72
2022/06/27 03:12:37;;;;;;;4.53;2.77;;;32.30;95.90;;;;;;1937475;73;21511;-71
2022/06/27 03:15:10;;;;;;;3.85;2.70;;;32.30;96.10;;;;;;1942576;72;21682;-73
2022/06/27 03:17:41;;;;;;;4.75;2.80;;;32.40;96.10;;;;;;1944604;73;21096;-71
2022/06/27 03:20:13;;;;;;;5.50;2.55;;;32.30;96.20;;;;;;1964345;72;21120;-71
2022/06/27 03:22:45;;;;;;;4.70;2.58;;;32.30;95.80;;;;;;1932787;73;21641;-72
2022/06/27 03:25:16;;;;;;;4.20;2.52;;;32.40;95.80;;;;;;1932249;72;21084;-73
2022/06/27 03:27:47;;;;;;;5.15;2.87;;;32.20;95.50;;;;;;1925235;73;21558;-72
2022/06/27 03:30:18;;;;;;;5.22;3.00;;;32.40;95.60;;;;;;1934166;73;21626;-72
2022/06/27 03:33:08;;;;;;;3.87;2.45;;;32.40;96.10;;;;;;1935708;73;21646;-72
2022/06/27 03:35:39;;;;;;;5.42;2.40;;;32.20;95.90;;;;;;1894786;74;21072;-71
2022/06/27 03:38:12;;;;;;;6.78;4.10;;;32.30;95.50;;;;;;1908031;74;21652;-72
2022/06/27 03:40:45;;;;;;;6.22;2.70;;;32.50;95.50;;;;;;1858075;76;21198;-71
2022/06/27 03:43:16;;;;;;;4.65;2.40;;;32.40;95.70;;;;;;1864253;76;21228;-72
2022/06/27 03:45:47;;;;;;;4.37;2.40;;;32.20;95.40;;;;;;1856203;76;21076;-72
2022/06/27 03:50:50;;;;;;;5.03;2.65;;;32.00;96.10;;;;;;1882493;75;21670;-72
2022/06/27 03:53:22;;;;;;;4.30;2.83;;;32.10;96.80;;;;;;1907663;73;21650;-72
2022/06/27 03:55:53;;;;;;;3.77;2.70;;;32.30;96.50;;;;;;1893677;74;21141;-72
2022/06/27 03:58:24;;;;;;;3.65;2.17;;;32.50;95.90;;;;;;1888175;74;21123;-71
2022/06/27 04:00:54;;;;;;;4.45;2.45;;;32.70;96.20;;;;;;1888245;74;21174;-71
2022/06/27 04:03:25;;;;;;;4.97;2.37;;;32.60;95.80;;;;;;1884640;74;21650;-72
2022/06/27 04:05:56;;;;;;;4.70;1.82;;;32.60;86.20;;;;;;1841017;78;21068;-72
2022/06/27 04:08:27;;;;;;;4.40;2.17;;;32.60;83.80;;;;;;1893059;74;21150;-71
2022/06/27 04:10:58;;;;;;;7.22;2.70;;;32.50;84.20;;;;;;1901483;74;21158;-71
2022/06/27 04:13:29;;;;;;;4.47;2.35;;;32.60;82.90;;;;;;1887058;74;21163;-71
2022/06/27 04:16:00;;;;;;;5.78;2.20;;;32.80;81.70;;;;;;1840025;78;21175;-72
2022/06/27 04:18:32;;;;;;;3.10;2.05;;;32.90;81.60;;;;;;1906900;73;21179;-71
2022/06/27 04:21:03;;;;;;;3.45;1.85;;;33.00;81.10;;;;;;1897733;74;21162;-70
2022/06/27 04:23:34;;;;;;;3.83;1.80;;;33.10;79.60;;;;;;1839425;78;21139;-70
2022/06/27 04:26:05;;;;;;;3.72;2.25;;;33.20;79.90;;;;;;1896794;74;21157;-70
2022/06/27 04:28:36;;;;;;;4.15;2.22;;;33.20;80.20;;;;;;1838253;78;21740;-70
2022/06/27 04:31:08;;;;;;;2.90;2.20;;;33.30;79.40;;;;;;1887069;74;21159;-71
2022/06/27 04:33:40;;;;;;;4.22;2.58;;;33.40;80.40;;;;;;1898089;75;21193;-70
2022/06/27 04:36:12;;;;;;;4.03;2.20;;;33.40;79.30;;;;;;1894381;74;21232;-70
2022/06/27 04:38:43;;;;;;;4.53;2.05;;;33.50;77.40;;;;;;1883795;75;21151;-70
2022/06/27 04:41:14;;;;;;;4.25;1.98;;;33.60;78.20;;;;;;1887034;74;21599;-71
2022/06/27 04:43:46;;;;;;;3.00;1.90;;;33.60;78.10;;;;;;1849069;76;21147;-71
2022/06/27 04:46:18;;;;;;;5.20;1.77;;;33.70;77.70;;;;;;1887699;74;21117;-69
2022/06/27 04:48:49;;;;;;;3.35;2.35;;;33.80;76.50;;;;;;1881435;75;21085;-70
2022/06/27 04:51:20;;;;;;;4.40;2.15;;;33.70;76.30;;;;;;1846147;76;21085;-70
2022/06/27 04:53:51;;;;;;;3.22;2.08;;;33.70;76.70;;;;;;1886711;74;21156;-72
2022/06/27 04:56:22;;;;;;;3.25;1.80;;;33.60;76.20;;;;;;1883339;74;21085;-71
2022/06/27 04:58:54;;;;;;;4.53;2.20;;;33.50;77.20;;;;;;1846248;76;21544;-72
2022/06/27 05:01:24;;;;;;;4.58;1.75;;;33.50;76.20;;;;;;1883851;74;21607;-71
2022/06/27 05:03:55;;;;;;;4.65;1.60;;;33.60;74.90;;;;;;1887732;74;21199;-73
2022/06/27 05:06:26;;;;;;;2.92;1.80;;;33.60;74.70;;;;;;1885374;74;21233;-70
2022/06/27 05:08:58;;;;;;;3.47;1.70;;;33.70;74.20;;;;;;1892052;74;21127;-70
2022/06/27 05:11:29;;;;;;;4.00;1.90;;;33.80;74.50;;;;;;1884550;74;21189;-70
2022/06/27 05:14:00;;;;;;;2.85;1.87;;;33.90;73.90;;;;;;1850350;76;21155;-70
2022/06/27 05:16:31;;;;;;;6.12;2.83;;;33.90;74.30;;;;;;1899518;74;21260;-70
2022/06/27 05:19:03;;;;;;;2.52;1.87;;;34.00;74.30;;;;;;1902456;74;21610;-71
2022/06/27 05:21:35;;;;;;;5.15;2.05;;;34.10;72.60;;;;;;1904442;74;21138;-70
2022/06/27 05:24:07;;;;;;;3.20;2.05;;;34.10;84.80;;;;;;1905264;74;21084;-71
2022/06/27 05:26:38;;;;;;;4.58;1.98;;;34.40;89.40;;;;;;1889552;74;21147;-69
2022/06/27 05:29:09;;;;;;;4.95;2.25;;;34.50;88.40;;;;;;1890316;74;21208;-70
2022/06/27 05:31:40;;;;;;;5.03;2.17;;;34.30;85.80;;;;;;1838171;76;21149;-70
2022/06/27 05:34:12;;;;;;;4.45;2.40;;;34.40;72.90;;;;;;1825237;77;21129;-69
2022/06/27 05:36:43;;;;;;;5.37;2.60;;;34.50;73.40;;;;;;1862936;76;21135;-70
2022/06/27 05:39:34;;;;;;;3.75;2.40;;;34.50;72.90;;;;;;1855318;76;21169;-70
2022/06/27 05:42:06;;;;;;;4.45;2.20;;;34.50;72.50;;;;;;1885803;74;21119;-69
2022/06/27 05:44:36;;;;;;;4.42;1.60;;;34.60;71.00;;;;;;1835348;76;21149;-70
2022/06/27 05:47:09;;;;;;;4.90;1.70;;;34.60;70.70;;;;;;1886832;74;21119;-70
2022/06/27 05:49:40;;;;;;;3.45;2.05;;;34.50;70.80;;;;;;1850417;76;21241;-70
2022/06/27 05:52:11;;;;;;;3.65;2.22;;;34.60;71.40;;;;;;1891311;74;22191;-70
2022/06/27 05:54:44;;;;;;;4.42;2.40;;;34.50;71.70;;;;;;1895569;74;21128;-69
2022/06/27 05:57:16;;;;;;;3.37;2.35;;;34.40;74.30;;;;;;1886551;74;21646;-69
2022/06/27 05:59:47;;;;;;;5.47;2.45;;;34.30;73.50;;;;;;1885087;74;21762;-71
2022/06/27 06:02:19;;;;;;;4.25;1.90;;;34.30;72.50;;;;;;1850991;76;21539;-70
2022/06/27 06:04:51;;;;;;;4.12;2.10;;;34.30;72.20;;;;;;1888312;74;21645;-70
2022/06/27 06:07:23;;;;;;;5.03;2.25;;;34.30;72.50;;;;;;1885023;74;21268;-71
2022/06/27 06:09:54;;;;;;;4.30;2.58;;;34.20;72.80;;;;;;1857436;76;21088;-70
2022/06/27 06:12:26;;;;;;;4.90;2.33;;;34.00;74.00;;;;;;1895975;74;21606;-70
2022/06/27 06:15:04;;;;;;;5.35;2.30;;;33.90;75.20;;;;;;1886508;74;21060;-69
2022/06/27 06:17:34;;;;;;;7.72;1.72;;;33.80;74.40;;;;;;1893275;74;21615;-71
2022/06/27 06:20:07;;;;;;;6.45;2.30;;;33.80;72.40;;;;;;1896767;74;22356;-70
2022/06/27 06:22:39;;;;;;;3.52;1.37;;;33.80;74.00;;;;;;1907543;74;21134;-70
2022/06/27 06:25:10;;;;;;;2.75;1.75;;;33.90;71.80;;;;;;1892149;74;21687;-70
2022/06/27 06:27:44;;;;;;;3.60;1.50;;;33.90;72.60;;;;;;1907378;74;21256;-70
2022/06/27 06:30:15;;;;;;;4.58;1.90;;;34.00;72.50;;;;;;1906240;74;21163;-70
2022/06/27 06:32:47;;;;;;;3.95;2.00;;;34.10;72.20;;;;;;1899535;74;21923;-69
2022/06/27 06:35:18;;;;;;;4.12;1.85;;;34.20;72.10;;;;;;1876973;74;21138;-69
2022/06/27 06:37:51;;;;;;;5.62;2.45;;;34.30;71.90;;;;;;1902684;74;21134;-70
2022/06/27 06:40:48;;;;;;;11.22;2.30;;;34.40;71.30;;;;;;1904292;74;21618;-69
2022/06/27 06:43:20;;;;;;;3.83;2.10;;;34.30;71.90;;;;;;1887491;74;21567;-70
2022/06/27 06:45:51;;;;;;;3.90;2.10;;;34.30;71.80;;;;;;1914324;74;21612;-71
2022/06/27 06:48:23;;;;;;;3.25;1.90;;;34.20;72.00;;;;;;1902534;74;21123;-70
2022/06/27 06:50:57;;;;;;;3.15;1.77;;;34.10;72.10;;;;;;1904285;74;21210;-70
2022/06/27 06:53:26;;;;;;;3.45;1.80;;;34.10;72.50;;;;;;1899860;74;21111;-69
2022/06/27 06:55:57;;;;;;;2.55;1.72;;;34.10;72.50;;;;;;1869130;76;21142;-69
2022/06/27 06:58:28;;;;;;;4.92;2.10;;;34.20;72.00;;;;;;1906458;74;21123;-69
2022/06/27 07:01:01;;;;;;;3.42;1.92;;;34.20;72.00;;;;;;1900996;74;21594;-69
2022/06/27 07:03:33;;;;;;;2.65;1.80;;;34.30;71.40;;;;;;1897352;74;21682;-70
2022/06/27 07:06:05;;;;;;;2.85;2.10;;;34.30;72.40;;;;;;1899089;74;21547;-70
2022/06/27 07:08:39;;;;;;;3.67;1.90;;;34.30;71.70;;;;;;1897188;74;21123;-70
2022/06/27 07:11:09;;;;;;;3.52;2.12;;;34.30;72.40;;;;;;1918248;74;21609;-71
2022/06/27 07:13:40;;;;;;;8.28;2.08;;;34.20;73.70;;;;;;1887431;74;21631;-70
2022/06/27 07:16:12;;;;;;;3.12;1.98;;;34.20;72.80;;;;;;1901613;74;21808;-70
2022/06/27 07:18:44;;;;;;;5.25;2.80;;;34.20;72.50;;;;;;1904562;74;21107;-70
2022/06/27 07:21:18;;;;;;;3.55;1.90;;;34.20;71.90;;;;;;1887505;74;21265;-69
2022/06/27 07:23:50;;;;;;;3.58;1.70;;;34.30;71.30;;;;;;1880791;76;21146;-69
2022/06/27 07:26:23;;;;;;;3.52;1.95;;;34.30;71.70;;;;;;1881508;76;21653;-70
2022/06/27 07:28:55;;;;;;;3.02;1.60;;;34.30;72.00;;;;;;1876341;76;21613;-69
2022/06/27 07:31:26;;;;;;;2.60;1.60;;;34.30;71.50;;;;;;1878710;76;21119;-69
2022/06/27 07:33:59;;;;;;;4.22;2.17;;;34.20;71.10;;;;;;1881956;74;21653;-70
2022/06/27 07:36:32;;;;;;;3.45;1.60;;;34.20;71.20;;;;;;1875937;76;21186;-70
2022/06/27 07:39:03;;;;;;;5.03;1.82;;;34.20;69.90;;;;;;1858623;76;21587;-70
2022/06/27 07:41:34;;;;;;;5.17;1.92;;;34.20;70.20;;;;;;1856345;77;21804;-70
2022/06/27 07:44:06;;;;;;;2.65;1.80;;;34.30;69.90;;;;;;1856090;77;22315;-70
2022/06/27 07:46:38;;;;;;;5.30;2.08;;;34.30;69.90;;;;;;1859964;77;21193;-70
2022/06/27 07:49:09;;;;;;;3.35;2.10;;;34.20;69.90;;;;;;1846006;77;21151;-69
2022/06/27 07:51:41;;;;;;;3.37;1.98;;;34.10;71.20;;;;;;1855771;76;21139;-70
2022/06/27 07:54:13;;;;;;;6.45;1.90;;;34.10;71.70;;;;;;1850899;77;21645;-70
2022/06/27 07:56:46;;;;;;;3.67;1.87;;;34.10;71.60;;;;;;1855571;77;21106;-69
2022/06/27 07:59:18;;;;;;;6.08;1.70;;;34.10;72.40;;;;;;1786305;80;21687;-70
2022/06/27 08:01:50;;;;;;;3.95;1.77;;;34.20;71.60;;;;;;1824436;77;21204;-71
2022/06/27 08:04:22;;;;;;;2.65;1.62;;;34.20;71.20;;;;;;1857234;77;21619;-70
2022/06/27 08:06:54;;;;;;;3.15;1.70;;;34.40;69.90;;;;;;1816913;79;21728;-70
2022/06/27 08:09:26;;;;;;;2.80;1.80;;;34.40;69.90;;;;;;1858693;77;21127;-70
2022/06/27 08:11:58;;;;;;;17.90;2.35;;;34.50;71.00;;;;;;1813379;79;21195;-69
2022/06/27 08:14:29;;;;;;;4.72;1.80;;;34.50;70.50;;;;;;1859741;77;21115;-71
2022/06/27 08:17:01;;;;;;;5.35;2.20;;;34.50;70.20;;;;;;1788015;80;21672;-70
2022/06/27 08:19:32;;;;;;;4.12;1.95;;;34.60;71.00;;;;;;1857279;76;21146;-70
2022/06/27 08:22:04;;;;;;;3.17;2.05;;;34.50;70.20;;;;;;1858472;77;21692;-71
2022/06/27 08:24:36;;;;;;;4.45;2.25;;;34.50;70.80;;;;;;1857926;77;21123;-70
2022/06/27 08:27:07;;;;;;;3.37;1.72;;;34.40;72.20;;;;;;1814318;79;21163;-69
2022/06/27 08:29:38;;;;;;;3.70;1.82;;;34.40;71.30;;;;;;1775188;78;21717;-70
2022/06/27 08:32:09;;;;;;;5.20;3.08;;;34.30;71.90;;;;;;1860588;76;21107;-71
2022/06/27 08:34:41;;;;;;;3.30;1.82;;;34.20;72.00;;;;;;1814779;79;21087;-70
2022/06/27 08:37:12;;;;;;;3.62;1.77;;;34.10;71.90;;;;;;1818389;77;21189;-69
2022/06/27 08:39:43;;;;;;;5.00;2.22;;;34.00;71.80;;;;;;1872064;76;21081;-72
2022/06/27 08:42:15;;;;;;;4.60;1.77;;;33.80;72.30;;;;;;1884587;75;21164;-69
2022/06/27 08:44:46;;;;;;;4.83;2.50;;;33.80;72.80;;;;;;1874064;76;21155;-72
2022/06/27 08:47:18;;;;;;;12.60;2.70;;;33.80;72.50;;;;;;1879459;76;21143;-71
2022/06/27 08:49:52;;;;;;;3.87;2.30;;;33.80;72.50;;;;;;1883729;75;21593;-72
2022/06/27 08:52:22;;;;;;;3.33;2.05;;;33.80;73.40;;;;;;1870477;76;21853;-71
2022/06/27 08:54:56;;;;;;;6.12;3.52;;;33.80;72.90;;;;;;1876272;76;21155;-71
2022/06/27 08:57:25;;;;;;;6.25;2.50;;;33.80;73.10;;;;;;1890430;75;21165;-70
2022/06/27 08:59:58;;;;;;;2.85;1.75;;;33.80;72.30;;;;;;1872180;76;21108;-71
2022/06/27 09:02:29;;;;;;;4.45;2.25;;;33.90;71.50;;;;;;1882544;75;21146;-71
2022/06/27 09:05:02;;;;;;;3.27;2.25;;;33.90;71.60;;;;;;1877487;76;21074;-70
2022/06/27 09:07:36;;;;;;;2.52;1.60;;;33.90;72.10;;;;;;1887318;75;21168;-71
2022/06/27 09:10:10;;;;;;;6.05;2.12;;;33.90;71.60;;;;;;1871298;76;21086;-72
2022/06/27 09:12:44;;;;;;;3.17;1.90;;;33.90;71.90;;;;;;1869606;76;21144;-72
2022/06/27 09:15:15;;;;;;;4.12;2.25;;;33.90;71.60;;;;;;1885065;75;21158;-73
2022/06/27 09:17:48;;;;;;;4.90;2.10;;;33.90;71.70;;;;;;1878497;76;21753;-71
2022/06/27 09:20:19;;;;;;;4.87;1.87;;;33.90;71.50;;;;;;1832849;78;21193;-71
2022/06/27 09:22:51;;;;;;;2.95;1.90;;;33.80;71.40;;;;;;1837934;78;21628;-71
2022/06/27 09:25:23;;;;;;;5.92;2.30;;;33.80;71.70;;;;;;1833222;78;21146;-71
2022/06/27 09:27:54;;;;;;;5.45;2.20;;;33.80;71.70;;;;;;1837761;78;21082;-71
2022/06/27 09:30:26;;;;;;;3.50;1.90;;;33.80;72.70;;;;;;1834219;78;21167;-72
2022/06/27 09:33:00;;;;;;;4.92;2.62;;;33.70;71.40;;;;;;1838548;78;21194;-72
2022/06/27 09:35:34;;;;;;;6.53;2.27;;;33.70;71.60;;;;;;1836652;78;21136;-72
2022/06/27 09:38:07;;;;;;;3.70;1.80;;;33.60;71.10;;;;;;1831624;77;21183;-71
2022/06/27 09:40:41;;;;;;;5.58;2.60;;;33.60;71.60;;;;;;1828584;78;21136;-72
2022/06/27 09:43:16;;;;;;;4.47;2.05;;;33.60;71.70;;;;;;1838783;78;21139;-71
2022/06/27 09:45:48;;;;;;;4.47;2.47;;;33.60;72.20;;;;;;1834933;77;21141;-71
2022/06/27 09:48:19;;;;;;;3.25;1.80;;;33.50;72.20;;;;;;1842984;78;21073;-72
2022/06/27 09:50:51;;;;;;;7.08;2.00;;;33.50;71.20;;;;;;1844648;78;21094;-71
2022/06/27 09:53:26;;;;;;;7.03;2.10;;;33.60;71.70;;;;;;1854206;75;21187;-72
2022/06/27 09:55:58;;;;;;;6.42;2.47;;;33.60;71.10;;;;;;1843889;78;21089;-73
2022/06/27 09:58:30;;;;;;;4.03;2.00;;;33.60;71.60;;;;;;1835449;78;21167;-72
2022/06/27 10:01:04;;;;;;;5.75;2.20;;;33.60;71.00;;;;;;1834227;78;21155;-72
2022/06/27 10:03:37;;;;;;;4.53;2.00;;;33.70;70.90;;;;;;1835538;77;21229;-71
2022/06/27 10:06:10;;;;;;;6.58;2.80;;;33.70;70.70;;;;;;1830413;76;21221;-72
2022/06/27 10:08:44;;;;;;;4.33;2.10;;;33.70;70.70;;;;;;1831565;76;21227;-72
2022/06/27 10:11:15;;;;;;;3.83;2.02;;;33.70;70.70;;;;;;1836414;76;21170;-73
2022/06/27 10:13:50;;;;;;;4.30;2.20;;;33.60;71.00;;;;;;1835884;78;21116;-73
2022/06/27 10:16:21;;;;;;;4.33;2.02;;;33.70;71.40;;;;;;1827258;78;21226;-72
2022/06/27 10:18:55;;;;;;;3.40;1.82;;;33.60;71.20;;;;;;1870610;75;21170;-72
2022/06/27 10:21:28;;;;;;;4.95;1.55;;;33.60;70.70;;;;;;1875105;75;21222;-72
2022/06/27 10:24:01;;;;;;;6.47;1.77;;;33.50;69.20;;;;;;1884549;75;21095;-71
2022/06/27 10:26:35;;;;;;;7.20;1.80;;;33.50;70.00;;;;;;1868401;75;21626;-71
2022/06/27 10:29:10;;;;;;;4.47;1.80;;;33.50;69.70;;;;;;1886826;75;21077;-72
2022/06/27 10:31:43;;;;;;;3.33;2.00;;;33.50;69.20;;;;;;1869797;76;21136;-71
2022/06/27 10:34:14;;;;;;;4.90;2.40;;;33.50;70.00;;;;;;1853401;77;21162;-71
2022/06/27 10:36:45;;;;;;;6.45;2.08;;;33.40;70.50;;;;;;1863291;75;21527;-70
2022/06/27 10:39:18;;;;;;;4.33;2.17;;;33.50;71.50;;;;;;1884076;75;21148;-71
2022/06/27 10:41:49;;;;;;;4.35;2.47;;;33.50;71.70;;;;;;1884537;75;21567;-72
2022/06/27 10:44:23;;;;;;;5.87;3.27;;;33.40;71.90;;;;;;1880978;75;21230;-74
2022/06/27 10:46:54;;;;;;;3.65;2.10;;;33.40;72.00;;;;;;1886614;75;21145;-73
2022/06/27 10:49:26;;;;;;;5.12;2.37;;;33.40;72.20;;;;;;1889602;75;21644;-72
2022/06/27 10:51:59;;;;;;;6.25;2.45;;;33.40;72.50;;;;;;1885551;75;21134;-71
2022/06/27 10:54:33;;;;;;;27.58;4.05;;;33.30;71.80;;;;;;1877461;76;21159;-81
2022/06/27 10:57:09;;;;;;;9.05;2.60;;;33.30;71.60;;;;;;1884551;76;21068;-82
2022/06/27 10:59:39;;;;;;;5.37;2.58;;;33.40;71.70;;;;;;1884333;76;21201;-83
2022/06/27 11:02:11;;;;;;;4.90;2.30;;;33.30;72.30;;;;;;1874035;75;21330;-82
2022/06/27 11:04:45;;;;;;;4.70;2.60;;;33.30;71.60;;;;;;1878959;75;21138;-82
2022/06/27 11:07:17;;;;;;;4.65;2.02;;;33.30;71.90;;;;;;1902407;75;21719;-82
2022/06/27 11:09:49;;;;;;;6.60;2.40;;;33.30;71.70;;;;;;1902610;75;21243;-83
2022/06/27 11:12:23;;;;;;;2.87;2.02;;;33.30;71.90;;;;;;1902452;75;21193;-82
2022/06/27 11:15:00;;;;;;;6.85;2.70;;;33.30;72.30;;;;;;1852319;77;21648;-82
2022/06/27 11:17:31;;;;;;;4.17;2.60;;;33.30;72.70;;;;;;1819743;78;21075;-82
2022/06/27 11:20:04;;;;;;;6.10;2.60;;;33.30;73.40;;;;;;1900763;75;21192;-83
2022/06/27 11:22:37;;;;;;;5.58;2.22;;;33.20;73.30;;;;;;1893937;75;21117;-82
2022/06/27 11:25:10;;;;;;;5.95;2.90;;;33.20;73.20;;;;;;1884657;75;21758;-81
2022/06/27 11:27:43;;;;;;;5.67;2.40;;;33.20;73.00;;;;;;1897815;75;21088;-80
2022/06/27 11:32:55;;;;;;;7.30;2.40;;;33.20;73.50;;;;;;1906334;75;21726;-82
2022/06/27 11:35:26;;;;;;;4.15;2.40;;;33.10;73.40;;;;;;1910361;75;21093;-83
2022/06/27 11:37:57;;;;;;;6.37;2.30;;;33.10;73.60;;;;;;1906115;75;21197;-82
2022/06/27 11:40:28;;;;;;;4.87;2.10;;;33.10;73.60;;;;;;1876683;75;21131;-82
2022/06/27 11:42:59;;;;;;;7.17;2.33;;;33.10;74.10;;;;;;1879648;76;21146;-82
2022/06/27 11:45:32;;;;;;;6.70;2.65;;;33.00;74.10;;;;;;1874246;76;21694;-82
2022/06/27 11:48:06;;;;;;;6.30;2.60;;;33.00;74.00;;;;;;1883246;76;21043;-82
2022/06/27 11:50:37;;;;;;;5.45;2.70;;;33.00;74.30;;;;;;1879304;76;21118;-82
2022/06/27 11:53:08;;;;;;;5.25;2.67;;;33.00;74.30;;;;;;1876172;75;21142;-81
2022/06/27 11:55:39;;;;;;;7.03;2.72;;;33.00;74.50;;;;;;1884276;75;21175;-81
2022/06/27 11:58:11;;;;;;;5.55;3.02;;;32.90;74.50;;;;;;1881236;75;21529;-83
2022/06/27 12:00:42;;;;;;;10.63;3.40;;;32.90;74.80;;;;;;1886338;75;21137;-83
2022/06/27 12:03:14;;;;;;;7.80;3.62;;;32.90;75.10;;;;;;1872548;76;21075;-81
2022/06/27 12:05:45;;;;;;;7.00;3.58;;;32.90;75.40;;;;;;1858796;76;21608;-82
2022/06/27 12:08:16;;;;;;;7.15;3.35;;;32.90;76.40;;;;;;1873554;76;21117;-81
2022/06/27 12:13:27;;;;;;;9.20;3.83;;;32.80;75.60;;;;;;1832145;77;21089;-82
2022/06/27 12:16:01;;;;;;;6.80;3.35;;;32.80;75.60;;;;;;1832117;77;21071;-81
2022/06/27 12:18:34;;;;;;;7.80;3.60;;;32.80;75.60;;;;;;1809933;78;21134;-82
2022/06/27 12:21:06;;;;;;;13.00;4.30;;;32.70;76.00;;;;;;1825307;78;21228;-82
2022/06/27 12:23:38;;;;;;;8.53;3.60;;;32.70;77.00;;;;;;1839868;77;21139;-82
2022/06/27 12:26:09;;;;;;;9.80;3.85;;;32.70;76.00;;;;;;1834141;78;21124;-82
2022/06/27 12:28:44;;;;;;;6.65;3.20;;;32.70;76.30;;;;;;1834214;78;21127;-82
2022/06/27 12:31:15;;;;;;;9.25;3.58;;;32.70;76.10;;;;;;1888302;75;21199;-81
2022/06/27 12:33:47;;;;;;;6.47;3.20;;;32.70;76.00;;;;;;1882697;75;21113;-83
2022/06/27 12:36:19;;;;;;;8.78;3.98;;;32.60;76.40;;;;;;1850592;75;21163;-83
2022/06/27 12:38:50;;;;;;;9.45;3.33;;;32.60;76.40;;;;;;1872910;75;21128;-83
2022/06/27 12:41:21;;;;;;;6.95;3.30;;;32.60;76.30;;;;;;1905593;74;21232;-82
2022/06/27 12:43:57;;;;;;;18.32;6.00;;;32.60;76.50;;;;;;1907185;74;21189;-82
2022/06/27 12:46:27;;;;;;;17.65;8.13;;;32.60;79.40;;;;;;1896726;75;21187;-82
2022/06/27 12:49:12;;;;;;;14.40;8.53;;;32.50;80.90;;;;;;1893104;74;21186;-83
2022/06/27 12:51:48;;;;;;;10.80;6.30;;;32.50;81.80;;;;;;1894466;76;21855;-81
2022/06/27 12:54:20;;;;;;;13.75;7.55;;;32.30;82.30;;;;;;1899068;74;21126;-81
2022/06/27 12:56:51;;;;;;;13.43;6.47;;;32.30;82.80;;;;;;1895832;76;21184;-81
2022/06/27 12:59:22;;;;;;;11.63;6.10;;;32.20;83.50;;;;;;1898759;74;21132;-82
2022/06/27 13:01:53;;;;;;;11.53;6.37;;;32.10;83.10;;;;;;1893460;75;21143;-82
2022/06/27 13:04:25;;;;;;;13.62;7.35;;;32.00;83.70;;;;;;1860755;77;21276;-81
2022/06/27 13:06:57;;;;;;;15.32;6.97;;;31.90;85.60;;;;;;1848680;76;21618;-81
2022/06/27 13:09:28;;;;;;;11.83;4.80;;;31.90;84.20;;;;;;1891595;76;21492;-80
2022/06/27 13:12:05;;;;;;;9.97;4.63;;;31.80;80.90;;;;;;1891829;76;21139;-81
2022/06/27 13:14:52;;;;;;;9.43;4.12;;;31.80;80.90;;;;;;1866553;76;21111;-81
2022/06/27 13:17:24;;;;;;;9.35;4.35;;;31.70;80.90;;;;;;1892487;76;21253;-83
2022/06/27 13:19:55;;;;;;;10.48;4.83;;;31.70;81.00;;;;;;1894307;74;21082;-84